Time;durP1;ratioP1;P1;durP2;ratioP2;P2;SDS_P1;SDS_P2;PMS_P1;PMS_P2;Temp;Humidity;BMP_temperature;BMP_pressure;BME280_temperature;BME280_humidity;BME280_pressure;Samples;Min_cycle;Max_cycle;Signal;HPM_P1;HPM_P2
2022/01/30 00:01:08;;;;;;;8.25;4.85;;;;;;;4.08;100.00;97419.70;2126855;84;21527;-83
2022/01/30 00:04:09;;;;;;;4.50;3.52;;;;;;;4.13;100.00;97399.28;2171053;81;20973;-83
2022/01/30 00:07:10;;;;;;;7.12;3.50;;;;;;;4.19;100.00;97406.34;2171242;81;21137;-84
2022/01/30 00:10:13;;;;;;;3.70;3.37;;;;;;;4.29;100.00;97425.08;2128203;83;21009;-84
2022/01/30 00:13:14;;;;;;;3.40;2.80;;;;;;;4.37;100.00;97420.83;2128352;84;20957;-84
2022/01/30 00:16:17;;;;;;;4.30;3.35;;;;;;;4.43;100.00;97403.30;2125406;84;20949;-85
2022/01/30 00:25:43;;;;;;;6.15;4.45;;;;;;;4.52;100.00;97394.00;2061445;86;21046;-85
2022/01/30 00:28:33;;;;;;;9.70;4.70;;;;;;;4.56;100.00;97402.23;2061174;86;21649;-85
2022/01/30 00:31:35;;;;;;;5.28;3.20;;;;;;;4.57;100.00;97376.61;2061120;86;21015;-84
2022/01/30 00:34:35;;;;;;;4.22;3.05;;;;;;;4.56;100.00;97390.56;2061069;86;21578;-83
2022/01/30 00:37:41;;;;;;;3.80;3.02;;;;;;;4.61;100.00;97379.19;2061289;86;21046;-84
2022/01/30 00:40:41;;;;;;;3.35;3.00;;;;;;;4.66;100.00;97388.53;2028025;88;21626;-84
2022/01/30 00:43:42;;;;;;;4.22;2.95;;;;;;;4.67;100.00;97395.36;2077970;85;20989;-83
2022/01/30 00:46:44;;;;;;;4.58;2.87;;;;;;;4.68;100.00;97369.74;2088128;85;21063;-84
2022/01/30 00:49:45;;;;;;;3.67;2.90;;;;;;;4.65;100.00;97383.03;2066912;85;21056;-84
2022/01/30 00:52:50;;;;;;;4.58;2.75;;;;;;;4.62;100.00;97376.91;2062585;86;21388;-84
2022/01/30 00:55:48;;;;;;;2.40;1.90;;;;;;;4.61;100.00;97379.69;2063367;86;21088;-85
2022/01/30 00:58:49;;;;;;;5.37;2.30;;;;;;;4.59;100.00;97377.77;2090030;83;21034;-84
2022/01/30 01:01:50;;;;;;;3.12;2.10;;;;;;;4.59;100.00;97371.28;2142463;82;21015;-85
2022/01/30 01:04:51;;;;;;;3.50;1.77;;;;;;;4.61;100.00;97418.58;2143870;82;20964;-84
2022/01/30 01:07:54;;;;;;;3.55;2.12;;;;;;;4.63;100.00;97394.08;2141965;83;20983;-84
2022/01/30 01:11:02;;;;;;;4.72;1.92;;;;;;;4.65;100.00;97377.05;2144351;82;21088;-84
2022/01/30 01:20:52;;;;;;;2.27;1.98;;;;;;;4.66;100.00;97398.10;2140881;82;21115;-84
2022/01/30 01:23:19;;;;;;;2.62;1.50;;;;;;;4.71;100.00;97384.14;2133660;83;21033;-84
2022/01/30 01:23:53;;;;;;;5.60;1.98;;;;;;;4.70;100.00;97370.37;2133513;83;21041;-84
2022/01/30 01:26:54;;;;;;;3.37;1.72;;;;;;;4.69;100.00;97346.72;2133694;83;21072;-84
2022/01/30 01:29:54;;;;;;;2.20;2.00;;;;;;;4.64;100.00;97353.40;2135173;82;21011;-83
2022/01/30 01:32:55;;;;;;;3.33;1.65;;;;;;;4.62;100.00;97377.41;2161434;82;20964;-84
2022/01/30 01:35:56;;;;;;;3.55;1.22;;;;;;;4.61;100.00;97397.34;2142049;82;21031;-84
2022/01/30 01:38:57;;;;;;;4.53;1.35;;;;;;;4.61;100.00;97399.93;2140877;83;21076;-84
2022/01/30 01:41:58;;;;;;;2.02;1.60;;;;;;;4.54;100.00;97384.26;2141095;83;21046;-82
2022/01/30 01:45:00;;;;;;;4.05;2.10;;;;;;;4.47;100.00;97385.11;2140635;83;21500;-84
2022/01/30 01:48:04;;;;;;;2.87;1.30;;;;;;;4.40;100.00;97403.66;2147977;81;21121;-84
2022/01/30 01:51:14;;;;;;;5.03;1.82;;;;;;;4.31;100.00;97374.89;2187490;81;21484;-85
2022/01/30 01:54:09;;;;;;;7.03;1.80;;;;;;;4.26;100.00;97379.27;2186788;81;21021;-85
2022/01/30 01:57:09;;;;;;;4.55;1.42;;;;;;;4.24;100.00;97407.95;2142767;83;21440;-84
2022/01/30 02:00:10;;;;;;;2.95;1.37;;;;;;;4.21;100.00;97397.13;2141551;83;21023;-84
2022/01/30 02:03:11;;;;;;;6.40;2.15;;;;;;;4.15;100.00;97377.89;2137854;83;21545;-85
2022/01/30 02:06:13;;;;;;;6.53;1.57;;;;;;;4.13;100.00;97386.33;2135403;83;21077;-83
2022/01/30 02:09:14;;;;;;;4.58;1.55;;;;;;;4.11;100.00;97393.44;2133305;83;21023;-81
2022/01/30 02:12:20;;;;;;;3.77;1.50;;;;;;;4.08;100.00;97383.92;2117192;84;20931;-81
2022/01/30 02:28:20;;;;;;;7.97;2.00;;;;;;;4.09;100.00;97386.33;2082231;85;21104;-83
2022/01/30 02:31:22;;;;;;;2.47;1.57;;;;;;;4.05;100.00;97399.81;2083239;85;20974;-82
2022/01/30 02:34:22;;;;;;;5.20;1.62;;;;;;;3.97;100.00;97404.54;2083884;85;21140;-83
2022/01/30 02:37:23;;;;;;;8.30;2.15;;;;;;;3.96;100.00;97400.34;2083698;85;20982;-83
2022/01/30 02:40:24;;;;;;;5.75;1.80;;;;;;;3.91;100.00;97403.91;2083691;85;21132;-83
2022/01/30 02:43:33;;;;;;;5.42;1.52;;;;;;;3.88;100.00;97402.47;2083713;85;20965;-83
2022/01/30 02:46:33;;;;;;;2.08;1.45;;;;;;;3.87;100.00;97400.86;2061935;85;21077;-82
2022/01/30 02:49:56;;;;;;;2.98;1.35;;;;;;;3.87;100.00;97406.53;2110561;84;21094;-82
2022/01/30 02:52:55;;;;;;;3.60;1.62;;;;;;;3.83;100.00;97376.27;2109302;84;21597;-83
2022/01/30 02:55:47;;;;;;;2.40;1.10;;;;;;;3.81;100.00;97356.70;2115805;84;21097;-83
2022/01/30 02:58:48;;;;;;;4.35;1.22;;;;;;;3.80;100.00;97355.09;2144307;82;21052;-83
2022/01/30 03:01:49;;;;;;;5.47;1.72;;;;;;;3.80;100.00;97350.72;2193704;81;21409;-83
2022/01/30 03:04:50;;;;;;;5.67;1.65;;;;;;;3.82;100.00;97380.32;2210176;81;21379;-83
2022/01/30 03:07:52;;;;;;;2.27;1.27;;;;;;;3.84;100.00;97313.62;2210054;80;20988;-84
2022/01/30 03:10:53;;;;;;;7.42;1.77;;;;;;;3.83;100.00;97335.33;2207631;81;21248;-83
2022/01/30 03:13:53;;;;;;;7.05;1.45;;;;;;;3.81;100.00;97343.27;2199631;81;21394;-84
2022/01/30 03:16:54;;;;;;;5.08;1.37;;;;;;;3.79;100.00;97353.48;2181496;81;20993;-83
2022/01/30 03:19:55;;;;;;;4.53;1.40;;;;;;;3.78;100.00;97340.22;2181193;82;20965;-83
2022/01/30 03:22:57;;;;;;;5.03;1.60;;;;;;;3.78;100.00;97326.78;2181211;81;21021;-83
2022/01/30 03:25:59;;;;;;;11.85;2.70;;;;;;;3.81;100.00;97337.28;2180403;82;21006;-83
2022/01/30 03:29:05;;;;;;;4.62;2.00;;;;;;;3.78;100.00;97356.56;2173716;81;21402;-83
2022/01/30 03:32:02;;;;;;;9.25;2.80;;;;;;;3.75;100.00;97317.23;2179079;81;21058;-83
2022/01/30 03:35:03;;;;;;;8.38;2.70;;;;;;;3.73;100.00;97331.66;2180862;81;20994;-83
2022/01/30 03:38:04;;;;;;;6.08;1.37;;;;;;;3.74;100.00;97333.75;2181290;81;21069;-82
2022/01/30 03:41:05;;;;;;;2.45;1.22;;;;;;;3.74;100.00;97320.31;2179489;81;20988;-82
2022/01/30 03:44:06;;;;;;;6.42;1.70;;;;;;;3.75;100.00;97342.67;2173788;82;21012;-83
2022/01/30 03:47:06;;;;;;;6.42;1.55;;;;;;;3.76;100.00;97350.75;2173843;82;21543;-84
2022/01/30 03:50:07;;;;;;;5.67;1.40;;;;;;;3.75;100.00;97346.55;2166654;81;21033;-83
2022/01/30 03:53:08;;;;;;;5.85;1.92;;;;;;;3.71;100.00;97339.59;2163508;82;21605;-83
2022/01/30 03:56:09;;;;;;;5.47;1.50;;;;;;;3.70;100.00;97354.01;2169590;82;21006;-84
2022/01/30 03:59:10;;;;;;;5.15;1.60;;;;;;;3.65;100.00;97327.81;2171293;81;21081;-84
2022/01/30 04:02:10;;;;;;;10.72;2.33;;;;;;;3.62;100.00;97335.92;2120836;83;20970;-84
2022/01/30 04:05:11;;;;;;;6.17;1.87;;;;;;;3.59;100.00;97320.73;2122977;84;20994;-84
2022/01/30 04:08:12;;;;;;;8.95;1.98;;;;;;;3.54;100.00;97308.78;2158114;82;21012;-83
2022/01/30 04:11:13;;;;;;;7.70;1.98;;;;;;;3.51;100.00;97298.28;2123156;83;21540;-83
2022/01/30 04:14:14;;;;;;;6.70;1.82;;;;;;;3.50;100.00;97278.56;2114274;84;20992;-83
2022/01/30 04:17:14;;;;;;;6.70;1.17;;;;;;;3.48;100.00;97268.88;2114241;84;21023;-83
2022/01/30 04:20:15;;;;;;;9.45;2.20;;;;;;;3.45;100.00;97270.48;2114356;84;21093;-83
2022/01/30 04:23:16;;;;;;;6.80;1.75;;;;;;;3.42;100.00;97261.78;2114159;84;21560;-83
2022/01/30 04:26:17;;;;;;;5.00;1.87;;;;;;;3.41;100.00;97257.58;2101198;84;21006;-83
2022/01/30 04:29:17;;;;;;;11.53;2.92;;;;;;;3.40;100.00;97269.72;2133748;83;21005;-83
2022/01/30 04:32:18;;;;;;;4.37;1.85;;;;;;;3.39;100.00;97245.31;2114968;83;21048;-83
2022/01/30 04:35:24;;;;;;;7.28;2.20;;;;;;;3.35;100.00;97255.17;2182332;81;21034;-83
2022/01/30 04:38:29;;;;;;;7.00;1.92;;;;;;;3.28;100.00;97250.84;2168628;81;22050;-83
2022/01/30 04:55:23;;;;;;;4.35;1.57;;;;;;;3.30;100.00;97220.45;2175707;81;21021;-83
2022/01/30 05:01:11;;;;;;;6.03;2.00;;;;;;;3.46;100.00;97213.88;2180328;81;21120;-83
2022/01/30 05:04:40;;;;;;;13.48;2.15;;;;;;;3.53;100.00;97182.45;2197233;81;21069;-83
2022/01/30 05:07:28;;;;;;;8.95;1.90;;;;;;;3.58;100.00;97209.94;2179856;81;21006;-83
2022/01/30 05:10:28;;;;;;;6.20;1.87;;;;;;;3.65;100.00;97204.36;2171254;81;21010;-83
2022/01/30 05:13:31;;;;;;;5.35;1.82;;;;;;;3.70;100.00;97198.68;2126708;83;21080;-81
2022/01/30 05:16:34;;;;;;;5.90;1.98;;;;;;;3.74;100.00;97194.76;2126554;84;21037;-82
2022/01/30 05:19:34;;;;;;;9.83;1.82;;;;;;;3.75;100.00;97189.92;2126777;83;21061;-83
2022/01/30 05:22:34;;;;;;;8.18;1.95;;;;;;;3.77;100.00;97198.80;2125720;83;21056;-83
2022/01/30 05:25:35;;;;;;;8.85;2.52;;;;;;;3.78;100.00;97208.18;2126714;84;21001;-82
2022/01/30 05:28:36;;;;;;;3.27;1.32;;;;;;;3.79;100.00;97210.59;2171062;82;20998;-82
2022/01/30 05:31:37;;;;;;;6.60;2.12;;;;;;;3.81;100.00;97237.59;2122687;83;20966;-82
2022/01/30 05:34:38;;;;;;;5.30;2.15;;;;;;;3.84;100.00;97227.72;2115652;84;21038;-82
2022/01/30 05:37:39;;;;;;;6.45;1.95;;;;;;;3.87;100.00;97207.14;2148190;82;21072;-82
2022/01/30 05:40:40;;;;;;;4.80;1.42;;;;;;;3.88;100.00;97222.50;2132820;83;21583;-82
2022/01/30 05:43:42;;;;;;;10.03;2.05;;;;;;;3.87;100.00;97233.03;2122918;83;20978;-82
2022/01/30 05:46:48;;;;;;;7.05;1.57;;;;;;;3.90;100.00;97230.09;2126239;84;21133;-83
2022/01/30 05:49:45;;;;;;;4.28;1.30;;;;;;;3.90;100.00;97234.77;2127563;83;21038;-82
2022/01/30 05:52:46;;;;;;;6.60;1.70;;;;;;;3.90;100.00;97173.12;2101230;85;21063;-83
2022/01/30 05:55:47;;;;;;;4.90;1.70;;;;;;;3.91;100.00;97232.50;2098183;85;21546;-83
2022/01/30 05:58:48;;;;;;;7.30;2.30;;;;;;;3.81;100.00;97235.01;2101245;85;20981;-83
2022/01/30 06:01:48;;;;;;;6.03;1.70;;;;;;;3.69;100.00;97209.53;2118581;84;20985;-83
2022/01/30 06:04:49;;;;;;;4.58;1.60;;;;;;;3.61;100.00;97217.84;2121246;84;21549;-83
2022/01/30 06:07:55;;;;;;;2.95;1.60;;;;;;;3.50;100.00;97185.39;2101035;85;21080;-84
2022/01/30 06:10:56;;;;;;;6.92;2.15;;;;;;;3.37;100.00;97188.53;2098824;85;21064;-83
2022/01/30 06:13:56;;;;;;;2.90;1.57;;;;;;;3.24;100.00;97171.97;2101153;84;21579;-83
2022/01/30 06:16:57;;;;;;;8.45;2.02;;;;;;;3.13;100.00;97194.66;2098380;85;21094;-83
2022/01/30 06:19:58;;;;;;;7.83;2.22;;;;;;;3.05;100.00;97193.41;2099851;85;21476;-83
2022/01/30 06:22:59;;;;;;;8.93;2.37;;;;;;;3.03;100.00;97188.89;2143823;82;21069;-83
2022/01/30 06:25:59;;;;;;;5.85;1.60;;;;;;;3.03;100.00;97180.33;2143944;83;21029;-83
2022/01/30 06:29:00;;;;;;;8.50;1.75;;;;;;;3.02;100.00;97170.48;2144059;82;21069;-83
2022/01/30 06:32:01;;;;;;;7.25;1.75;;;;;;;3.03;100.00;97175.16;2117953;84;21446;-83
2022/01/30 06:35:02;;;;;;;7.78;2.15;;;;;;;3.05;100.00;97175.80;2130308;83;21001;-82
2022/01/30 06:38:03;;;;;;;8.63;2.05;;;;;;;3.07;100.00;97139.73;2130053;84;21065;-83
2022/01/30 06:41:03;;;;;;;7.35;2.33;;;;;;;3.11;100.00;97153.95;2129886;84;20986;-83
2022/01/30 06:44:06;;;;;;;6.37;1.98;;;;;;;3.15;100.00;97159.57;2130298;84;21564;-83
2022/01/30 06:47:07;;;;;;;5.67;2.12;;;;;;;3.22;100.00;97125.59;2123640;84;21047;-83
2022/01/30 06:50:08;;;;;;;10.35;2.08;;;;;;;3.29;100.00;97148.97;2096827;84;21036;-82
2022/01/30 06:53:08;;;;;;;7.12;1.70;;;;;;;3.35;100.00;97154.75;2096275;85;21047;-83
2022/01/30 06:56:09;;;;;;;7.75;1.90;;;;;;;3.39;100.00;97128.88;2095104;85;21561;-83
2022/01/30 06:59:10;;;;;;;5.35;1.77;;;;;;;3.43;100.00;97133.52;2096967;85;21073;-84
2022/01/30 07:02:11;;;;;;;5.25;1.70;;;;;;;3.46;100.00;97136.23;2107414;84;20991;-84
2022/01/30 07:05:12;;;;;;;6.17;1.65;;;;;;;3.52;100.00;97114.86;2111420;84;21089;-82
2022/01/30 07:08:13;;;;;;;8.75;2.35;;;;;;;3.54;100.00;97122.44;2133391;83;20962;-83
2022/01/30 07:11:15;;;;;;;10.00;2.55;;;;;;;3.57;100.00;97130.68;2133476;83;21608;-83
2022/01/30 07:14:16;;;;;;;6.42;2.33;;;;;;;3.63;100.00;97132.55;2131169;83;21033;-83
2022/01/30 07:17:16;;;;;;;5.03;2.42;;;;;;;3.65;100.00;97132.38;2120064;83;21013;-83
2022/01/30 07:20:17;;;;;;;3.33;1.72;;;;;;;3.61;100.00;97120.77;2170979;81;20955;-83
2022/01/30 07:23:18;;;;;;;5.37;1.87;;;;;;;3.63;100.00;97126.58;2197425;81;21508;-84
2022/01/30 07:26:19;;;;;;;10.72;2.27;;;;;;;3.57;100.00;97114.34;2196939;81;20990;-84
2022/01/30 07:29:20;;;;;;;7.15;2.15;;;;;;;3.57;100.00;97117.73;2192629;81;21497;-84
2022/01/30 07:32:20;;;;;;;8.55;2.35;;;;;;;3.57;100.00;97109.98;2122338;83;21017;-84
2022/01/30 07:35:21;;;;;;;5.08;1.70;;;;;;;3.59;100.00;97122.73;2116137;84;21022;-88
2022/01/30 07:38:22;;;;;;;5.92;2.25;;;;;;;3.65;100.00;97110.38;2148816;83;20985;-86
2022/01/30 07:41:23;;;;;;;4.60;2.20;;;;;;;3.78;100.00;97104.62;2132657;83;21461;-86
2022/01/30 07:44:24;;;;;;;9.05;2.17;;;;;;;3.81;100.00;97105.55;2130163;83;21525;-83
2022/01/30 07:47:25;;;;;;;6.30;2.95;;;;;;;3.79;100.00;97104.44;2126485;84;21593;-83
2022/01/30 07:50:26;;;;;;;7.37;3.55;;;;;;;3.75;100.00;97112.25;2129423;83;20994;-84
2022/01/30 07:53:26;;;;;;;4.17;2.17;;;;;;;3.73;100.00;97109.02;2133390;83;21076;-81
2022/01/30 07:56:27;;;;;;;6.30;2.12;;;;;;;3.70;100.00;97087.37;2133931;83;20970;-85
2022/01/30 07:59:28;;;;;;;4.85;2.08;;;;;;;3.69;100.00;97103.88;2120830;83;21075;-86
2022/01/30 08:02:29;;;;;;;3.98;1.70;;;;;;;3.71;100.00;97095.45;2128045;83;20970;-86
2022/01/30 08:05:30;;;;;;;3.83;1.80;;;;;;;3.73;100.00;97103.84;2133403;83;21049;-83
2022/01/30 08:08:30;;;;;;;5.47;1.50;;;;;;;3.68;100.00;97078.98;2128609;83;21072;-85
2022/01/30 08:11:31;;;;;;;6.15;1.90;;;;;;;3.68;100.00;97100.49;2129693;83;21074;-83
2022/01/30 08:14:32;;;;;;;7.28;1.65;;;;;;;3.68;100.00;97091.92;2135497;83;21512;-88
2022/01/30 08:17:35;;;;;;;8.63;1.80;;;;;;;3.67;100.00;97058.77;2126510;83;21126;-83
2022/01/30 08:20:35;;;;;;;6.95;2.20;;;;;;;3.67;100.00;97073.00;2127839;83;20968;-87
2022/01/30 08:23:36;;;;;;;3.98;2.27;;;;;;;3.66;100.00;97084.83;2129316;83;21017;-86
2022/01/30 08:26:37;;;;;;;4.45;2.70;;;;;;;3.66;100.00;97084.83;2133265;83;21040;-87
2022/01/30 08:29:38;;;;;;;8.30;3.05;;;;;;;3.70;100.00;97092.55;2133470;83;20990;-87
2022/01/30 08:32:39;;;;;;;7.35;2.85;;;;;;;3.76;100.00;97106.09;2134313;83;21069;-84
2022/01/30 08:35:39;;;;;;;4.47;2.00;;;;;;;3.79;100.00;97088.91;2097246;85;20981;-86
2022/01/30 08:38:40;;;;;;;3.77;2.40;;;;;;;3.90;100.00;97102.71;2115030;84;20977;-85
2022/01/30 08:41:41;;;;;;;4.80;1.95;;;;;;;4.10;100.00;97104.78;2101469;84;21011;-82
2022/01/30 08:44:42;;;;;;;3.30;1.92;;;;;;;4.30;100.00;97099.41;2102339;85;21052;-85
2022/01/30 08:47:43;;;;;;;7.53;3.37;;;;;;;4.39;100.00;97084.08;2106322;84;21581;-84
2022/01/30 08:50:44;;;;;;;5.97;2.58;;;;;;;4.56;100.00;97089.84;2094089;84;21031;-88
2022/01/30 08:53:45;;;;;;;5.50;2.08;;;;;;;4.73;100.00;97081.37;2128792;83;20981;-83
2022/01/30 08:56:46;;;;;;;4.97;2.20;;;;;;;4.74;100.00;97121.88;2178638;82;20989;-87
2022/01/30 08:59:46;;;;;;;4.83;1.87;;;;;;;4.68;100.00;97094.91;2179587;81;21013;-89
2022/01/30 09:02:47;;;;;;;6.45;2.00;;;;;;;4.75;100.00;97100.14;2208341;80;20961;-85
2022/01/30 09:05:48;;;;;;;5.78;2.20;;;;;;;4.80;100.00;97086.95;2184404;80;20997;-82
2022/01/30 09:08:49;;;;;;;5.35;2.15;;;;;;;4.92;100.00;97096.36;2178938;80;21024;-87
2022/01/30 09:11:52;;;;;;;3.70;2.08;;;;;;;4.83;100.00;97086.58;2178825;81;21021;-87
2022/01/30 09:14:53;;;;;;;6.08;2.50;;;;;;;4.52;100.00;97085.53;2182900;81;20985;-80
2022/01/30 09:17:57;;;;;;;6.97;2.62;;;;;;;4.26;100.00;97113.20;2111125;84;20992;-82
2022/01/30 09:20:57;;;;;;;4.78;2.02;;;;;;;4.09;100.00;97091.52;2187745;80;21061;-82
2022/01/30 09:23:58;;;;;;;6.12;2.30;;;;;;;3.96;100.00;97106.39;2213386;80;21107;-85
2022/01/30 09:26:58;;;;;;;7.17;2.75;;;;;;;3.77;100.00;97106.41;2179955;80;21553;-82
2022/01/30 09:29:59;;;;;;;7.58;2.55;;;;;;;3.69;100.00;97116.83;2131308;84;20976;-85
2022/01/30 09:33:00;;;;;;;6.00;2.10;;;;;;;3.58;100.00;97107.70;2178906;81;21008;-83
2022/01/30 09:36:01;;;;;;;6.25;2.60;;;;;;;3.51;100.00;97130.07;2193278;81;21042;-84
2022/01/30 09:39:02;;;;;;;4.58;2.35;;;;;;;3.44;100.00;97131.73;2199660;81;21041;-80
2022/01/30 09:42:03;;;;;;;8.25;3.27;;;;;;;3.39;100.00;97132.75;2205788;80;20953;-82
2022/01/30 09:45:04;;;;;;;7.47;2.75;;;;;;;3.37;100.00;97141.16;2198522;80;20962;-86
2022/01/30 09:48:05;;;;;;;5.00;2.12;;;;;;;3.34;100.00;97128.08;2212079;80;21093;-84
2022/01/30 09:51:05;;;;;;;5.20;2.30;;;;;;;3.38;100.00;97144.05;2175140;81;20971;-84
2022/01/30 09:54:06;;;;;;;8.80;2.35;;;;;;;3.43;100.00;97152.12;2184644;80;21049;-85
2022/01/30 09:57:07;;;;;;;6.15;2.50;;;;;;;3.44;100.00;97142.08;2180705;80;20993;-81
2022/01/30 10:00:08;;;;;;;5.40;2.77;;;;;;;3.44;100.00;97138.20;2216400;80;21032;-85
2022/01/30 10:03:09;;;;;;;4.65;2.12;;;;;;;3.43;100.00;97128.34;2199828;80;21043;-85
2022/01/30 10:06:11;;;;;;;6.67;2.00;;;;;;;3.43;100.00;97130.13;2195430;80;20981;-86
2022/01/30 10:09:12;;;;;;;5.03;2.83;;;;;;;3.43;100.00;97145.16;2216070;80;20981;-84
2022/01/30 10:12:16;;;;;;;9.18;3.33;;;;;;;3.53;100.00;97138.95;2216926;80;21476;-82
2022/01/30 10:15:16;;;;;;;5.78;2.42;;;;;;;3.60;100.00;97120.46;2216077;80;21053;-81
2022/01/30 10:18:17;;;;;;;7.40;2.72;;;;;;;3.66;100.00;97169.77;2214148;80;21039;-89
2022/01/30 10:21:17;;;;;;;8.00;2.35;;;;;;;3.77;100.00;97150.91;2216800;80;20926;-82
2022/01/30 10:24:18;;;;;;;6.00;2.45;;;;;;;3.90;100.00;97151.11;2177900;80;21061;-86
2022/01/30 10:27:19;;;;;;;5.03;2.58;;;;;;;3.91;100.00;97156.11;2185341;80;20990;-87
2022/01/30 10:30:20;;;;;;;9.85;2.92;;;;;;;4.03;100.00;97147.94;2185084;81;20968;-84
2022/01/30 10:33:21;;;;;;;8.10;2.60;;;;;;;4.10;100.00;97157.39;2177319;80;21048;-84
2022/01/30 10:36:22;;;;;;;6.53;2.42;;;;;;;4.05;100.00;97159.72;2171043;82;21026;-84
2022/01/30 10:39:24;;;;;;;6.53;2.90;;;;;;;3.96;100.00;97151.71;2173212;80;21473;-82
2022/01/30 10:42:25;;;;;;;10.48;2.95;;;;;;;3.96;100.00;97169.84;2144528;83;20961;-84
2022/01/30 10:45:26;;;;;;;4.78;2.52;;;;;;;3.90;100.00;97170.53;2134647;82;21040;-83
2022/01/30 10:48:28;;;;;;;9.05;2.67;;;;;;;3.89;100.00;97161.95;2171508;80;20997;-85
2022/01/30 10:51:29;;;;;;;7.75;2.65;;;;;;;3.87;100.00;97160.53;2202325;80;21041;-85
2022/01/30 10:54:31;;;;;;;9.88;3.67;;;;;;;3.83;100.00;97149.70;2186968;81;21008;-83
2022/01/30 10:57:32;;;;;;;22.58;7.83;;;;;;;3.83;100.00;97132.06;2187909;81;21362;-82
2022/01/30 11:00:32;;;;;;;8.15;2.83;;;;;;;3.82;100.00;97140.81;2187782;81;21040;-83
2022/01/30 11:03:33;;;;;;;8.23;2.50;;;;;;;3.80;100.00;97150.06;2187832;81;20954;-84
2022/01/30 11:06:34;;;;;;;11.05;3.20;;;;;;;3.77;100.00;97127.61;2187614;80;21053;-83
2022/01/30 11:09:42;;;;;;;9.35;2.65;;;;;;;3.75;100.00;97125.20;2186148;81;21006;-84
2022/01/30 11:12:56;;;;;;;15.03;3.98;;;;;;;3.69;100.00;97138.83;2187487;81;21354;-84
2022/01/30 11:16:54;;;;;;;6.30;2.50;;;;;;;3.60;100.00;97129.52;2187859;81;21556;-84
2022/01/30 11:18:51;;;;;;;6.05;2.42;;;;;;;3.55;100.00;97158.49;2187867;81;21508;-86
2022/01/30 11:21:52;;;;;;;6.75;2.33;;;;;;;3.43;100.00;97128.34;2188212;81;20997;-85
2022/01/30 11:24:52;;;;;;;6.22;2.65;;;;;;;3.35;100.00;97140.53;2187429;81;21015;-83
2022/01/30 11:27:53;;;;;;;9.00;2.12;;;;;;;3.24;100.00;97117.16;2188899;81;21470;-81
2022/01/30 11:30:54;;;;;;;7.05;2.80;;;;;;;3.10;100.00;97114.80;2217816;80;21056;-82
2022/01/30 11:33:55;;;;;;;9.73;2.58;;;;;;;3.06;100.00;97127.77;2209560;80;21477;-82
2022/01/30 11:36:56;;;;;;;9.40;2.42;;;;;;;3.00;100.00;97115.52;2211327;80;21615;-82
2022/01/30 11:39:56;;;;;;;9.70;2.62;;;;;;;2.90;100.00;97123.17;2218165;80;21410;-83
2022/01/30 11:42:57;;;;;;;5.95;2.35;;;;;;;2.87;100.00;97115.77;2190655;81;21525;-83
2022/01/30 11:45:58;;;;;;;9.53;3.05;;;;;;;2.89;100.00;97106.86;2201521;80;21067;-82
2022/01/30 11:48:59;;;;;;;13.65;2.90;;;;;;;2.89;100.00;97107.34;2199691;80;20886;-84
2022/01/30 11:52:02;;;;;;;11.03;3.45;;;;;;;2.89;100.00;97102.18;2196228;81;21541;-89
2022/01/30 11:55:02;;;;;;;7.35;3.37;;;;;;;2.90;100.00;97101.20;2184134;81;21502;-86
2022/01/30 11:58:03;;;;;;;12.43;3.10;;;;;;;2.90;100.00;97116.22;2190745;81;21017;-83
2022/01/30 12:01:04;;;;;;;8.83;3.10;;;;;;;2.95;100.00;97115.73;2183999;80;21029;-85
2022/01/30 12:04:04;;;;;;;9.53;2.92;;;;;;;2.96;100.00;97126.38;2127568;82;21014;-86
2022/01/30 12:07:05;;;;;;;9.78;3.85;;;;;;;2.96;100.00;97105.70;2171676;81;21063;-83
2022/01/30 12:10:06;;;;;;;14.70;4.12;;;;;;;2.98;100.00;97136.06;2127495;84;21111;-82
2022/01/30 12:13:07;;;;;;;10.50;2.90;;;;;;;2.98;100.00;97127.81;2162912;82;21005;-84
2022/01/30 12:16:08;;;;;;;9.68;2.92;;;;;;;3.01;100.00;97131.84;2156694;82;20996;-82
2022/01/30 12:19:09;;;;;;;9.35;3.45;;;;;;;3.06;100.00;97131.66;2214047;80;20992;-82
2022/01/30 12:22:09;;;;;;;7.37;2.10;;;;;;;3.13;100.00;97147.30;2196949;80;21422;-81
2022/01/30 12:25:10;;;;;;;8.23;3.42;;;;;;;3.19;100.00;97140.63;2207033;80;21036;-82
2022/01/30 12:28:11;;;;;;;11.57;3.20;;;;;;;3.25;100.00;97142.53;2215897;80;20969;-83
2022/01/30 12:31:12;;;;;;;7.92;3.02;;;;;;;3.30;100.00;97155.28;2216204;80;21298;-81
2022/01/30 12:34:13;;;;;;;8.00;3.25;;;;;;;3.38;100.00;97163.00;2175510;80;21057;-81
2022/01/30 12:37:14;;;;;;;10.72;3.25;;;;;;;3.41;100.00;97151.00;2126087;83;21005;-81
2022/01/30 12:40:14;;;;;;;8.28;2.45;;;;;;;3.45;100.00;97174.73;2126850;84;21047;-81
2022/01/30 12:43:15;;;;;;;6.72;2.47;;;;;;;3.43;100.00;97159.39;2137094;83;20922;-82
2022/01/30 12:46:16;;;;;;;10.32;3.12;;;;;;;3.43;100.00;97190.93;2132459;83;21056;-82
2022/01/30 12:49:17;;;;;;;5.62;2.60;;;;;;;3.44;100.00;97186.07;2151681;82;20994;-83
2022/01/30 12:52:31;;;;;;;5.55;2.40;;;;;;;3.41;100.00;97178.66;2156269;82;21072;-82
2022/01/30 12:55:26;;;;;;;4.12;2.30;;;;;;;3.36;100.00;97178.36;2153809;82;21117;-82
2022/01/30 12:58:27;;;;;;;9.43;3.75;;;;;;;3.29;100.00;97203.30;2123253;83;20978;-88
2022/01/30 13:01:28;;;;;;;5.85;2.75;;;;;;;3.24;100.00;97220.63;2102041;85;21069;-82
2022/01/30 13:04:29;;;;;;;7.25;2.25;;;;;;;3.19;100.00;97202.70;2179619;81;20974;-82
2022/01/30 13:07:30;;;;;;;7.90;2.75;;;;;;;3.08;100.00;97228.45;2177987;81;20938;-83
2022/01/30 13:10:30;;;;;;;7.08;3.05;;;;;;;2.98;100.00;97244.17;2178584;80;20981;-84
2022/01/30 13:13:31;;;;;;;5.47;4.03;;;;;;;2.90;100.00;97267.47;2202655;80;21013;-81
2022/01/30 13:16:32;;;;;;;7.80;3.00;;;;;;;2.82;100.00;97264.41;2173715;82;20977;-80
2022/01/30 13:19:32;;;;;;;9.50;3.08;;;;;;;2.81;100.00;97276.22;2171061;82;20973;-81
2022/01/30 13:22:34;;;;;;;6.03;2.80;;;;;;;2.77;100.00;97268.48;2177724;80;20994;-81
2022/01/30 13:25:35;;;;;;;10.53;3.62;;;;;;;2.73;100.00;97260.23;2180896;80;21015;-82
2022/01/30 13:28:36;;;;;;;5.72;2.80;;;;;;;2.72;100.00;97270.26;2183645;80;20956;-82
2022/01/30 13:31:37;;;;;;;6.25;2.92;;;;;;;2.73;100.00;97268.48;2182018;80;20977;-83
2022/01/30 13:34:38;;;;;;;4.00;2.85;;;;;;;2.71;100.00;97293.20;2206969;81;21041;-83
2022/01/30 13:37:39;;;;;;;5.37;3.30;;;;;;;2.66;100.00;97239.92;2207037;81;21037;-82
2022/01/30 13:40:45;;;;;;;3.72;2.40;;;;;;;2.64;100.00;97270.76;2207063;80;21560;-81
2022/01/30 13:43:49;;;;;;;6.25;2.87;;;;;;;2.64;100.00;97286.27;2206291;81;21013;-82
2022/01/30 13:46:57;;;;;;;5.83;2.65;;;;;;;2.62;100.00;97299.36;2176886;82;21069;-81
2022/01/30 13:49:57;;;;;;;10.03;3.83;;;;;;;2.61;100.00;97315.84;2179415;80;21056;-82
2022/01/30 13:52:58;;;;;;;7.85;3.00;;;;;;;2.60;100.00;97314.22;2184873;81;21588;-82
2022/01/30 13:55:59;;;;;;;5.97;2.30;;;;;;;2.58;100.00;97326.51;2200610;81;20981;-82
2022/01/30 13:59:00;;;;;;;7.55;2.80;;;;;;;2.62;100.00;97342.00;2207391;80;20970;-82
2022/01/30 14:02:06;;;;;;;6.33;2.90;;;;;;;2.60;100.00;97350.89;2184678;81;21518;-82
2022/01/30 14:05:03;;;;;;;9.45;4.00;;;;;;;2.59;100.00;97326.83;2191134;81;20969;-79
2022/01/30 14:08:04;;;;;;;7.62;4.12;;;;;;;2.59;100.00;97347.98;2188140;81;21606;-81
2022/01/30 14:11:07;;;;;;;7.00;3.47;;;;;;;2.56;100.00;97382.69;2191898;80;20997;-81
2022/01/30 14:14:09;;;;;;;9.83;3.75;;;;;;;2.53;100.00;97372.69;2192626;80;20973;-78
2022/01/30 14:17:13;;;;;;;10.80;4.30;;;;;;;2.49;100.00;97394.66;2111957;83;21038;-81
2022/01/30 14:20:13;;;;;;;13.98;5.72;;;;;;;2.45;100.00;97403.69;2158637;82;21009;-80
2022/01/30 14:23:14;;;;;;;10.55;4.08;;;;;;;2.43;100.00;97411.59;2123428;83;20996;-80
2022/01/30 14:26:15;;;;;;;16.67;5.20;;;;;;;2.42;100.00;97389.31;2139876;83;21057;-80
2022/01/30 14:29:20;;;;;;;14.83;5.40;;;;;;;2.45;100.00;97401.10;2142528;83;20975;-81
2022/01/30 14:32:21;;;;;;;14.13;6.40;;;;;;;2.48;100.00;97424.05;2141619;83;21056;-80
2022/01/30 14:35:21;;;;;;;14.40;6.05;;;;;;;2.50;100.00;97427.28;2142929;83;20985;-81
2022/01/30 14:38:23;;;;;;;14.20;5.00;;;;;;;2.54;100.00;97430.66;2142277;83;21067;-82
2022/01/30 14:41:24;;;;;;;14.65;5.10;;;;;;;2.58;100.00;97445.38;2141559;83;20986;-84
2022/01/30 14:44:25;;;;;;;15.98;5.58;;;;;;;2.61;100.00;97452.00;2140098;83;20993;-80
2022/01/30 14:47:25;;;;;;;31.95;9.88;;;;;;;2.67;100.00;97444.91;2135807;83;22215;-81
2022/01/30 14:50:26;;;;;;;22.02;7.12;;;;;;;2.73;100.00;97433.91;2137527;83;21035;-82